Time;durP1;ratioP1;P1;durP2;ratioP2;P2;SDS_P1;SDS_P2;PMS_P1;PMS_P2;Temp;Humidity;BMP_temperature;BMP_pressure;BME280_temperature;BME280_humidity;BME280_pressure;Samples;Min_cycle;Max_cycle;Signal;HPM_P1;HPM_P2
2021/12/09 00:01:37;;;;;;;17.25;6.00;;;;;;;2.59;100.00;100145.97;5037898;28;20033;-80
2021/12/09 00:04:07;;;;;;;18.67;6.43;;;;;;;2.59;100.00;100148.56;5038259;28;20032;-79
2021/12/09 00:06:37;;;;;;;18.88;6.40;;;;;;;2.59;100.00;100151.16;5037364;28;20040;-79
2021/12/09 00:09:08;;;;;;;18.23;6.20;;;;;;;2.58;100.00;100157.19;5037380;28;20505;-78
2021/12/09 00:11:43;;;;;;;20.13;5.88;;;;;;;2.56;100.00;100158.81;5034598;28;20120;-79
2021/12/09 00:14:12;;;;;;;23.95;7.28;;;;;;;2.55;100.00;100151.88;5036093;28;20103;-79
2021/12/09 00:16:38;;;;;;;18.02;6.50;;;;;;;2.53;100.00;100166.50;5034712;28;20029;-79
2021/12/09 00:19:03;;;;;;;18.98;6.82;;;;;;;2.51;100.00;100162.97;5036488;28;20045;-79
2021/12/09 00:21:29;;;;;;;26.10;7.78;;;;;;;2.48;100.00;100162.84;5037900;28;20029;-78
2021/12/09 00:23:54;;;;;;;22.48;7.10;;;;;;;2.49;100.00;100168.09;5033595;28;20021;-79
2021/12/09 00:26:20;;;;;;;28.58;7.68;;;;;;;2.48;100.00;100165.44;5034572;28;20029;-80
2021/12/09 00:28:47;;;;;;;20.08;6.65;;;;;;;2.46;100.00;100164.50;5038086;28;20512;-79
2021/12/09 00:31:14;;;;;;;25.67;7.35;;;;;;;2.46;100.00;100170.56;5033204;28;20064;-80
2021/12/09 00:33:43;;;;;;;31.60;6.65;;;;;;;2.43;100.00;100166.97;5034789;28;20877;-79
2021/12/09 00:36:10;;;;;;;28.92;7.05;;;;;;;2.45;100.00;100167.94;5031373;28;20528;-79
2021/12/09 00:38:41;;;;;;;27.02;7.75;;;;;;;2.47;100.00;100166.25;5041846;28;20510;-80
2021/12/09 00:41:12;;;;;;;27.88;7.70;;;;;;;2.45;100.00;100168.78;5035100;28;20099;-80
2021/12/09 00:43:40;;;;;;;20.45;6.70;;;;;;;2.44;100.00;100171.34;5037485;28;20025;-79
2021/12/09 00:46:07;;;;;;;22.13;6.97;;;;;;;2.46;100.00;100164.50;5035276;28;20021;-79
2021/12/09 00:48:33;;;;;;;21.10;7.18;;;;;;;2.45;100.00;100168.78;5033926;28;20032;-80
2021/12/09 00:50:59;;;;;;;26.30;6.97;;;;;;;2.43;100.00;100161.78;5037832;28;20032;-80
2021/12/09 00:53:26;;;;;;;20.05;7.10;;;;;;;2.43;100.00;100159.16;5034928;28;20473;-80
2021/12/09 00:55:52;;;;;;;21.17;7.03;;;;;;;2.45;100.00;100167.94;5029160;28;20107;-80
2021/12/09 00:58:17;;;;;;;24.85;7.50;;;;;;;2.44;100.00;100164.44;5045521;28;20071;-78
2021/12/09 01:00:43;;;;;;;25.52;7.78;;;;;;;2.43;100.00;100169.56;5035327;28;20029;-80
2021/12/09 01:03:09;;;;;;;21.90;8.05;;;;;;;2.43;100.00;100164.38;5034958;28;20037;-80
2021/12/09 01:05:36;;;;;;;23.58;7.72;;;;;;;2.47;100.00;100161.06;5032102;28;20022;-80
2021/12/09 01:08:02;;;;;;;22.65;7.57;;;;;;;2.47;100.00;100161.06;5034347;28;20033;-81
2021/12/09 01:10:29;;;;;;;24.58;7.43;;;;;;;2.50;100.00;100156.00;5033338;28;20029;-80
2021/12/09 01:12:54;;;;;;;23.73;6.60;;;;;;;2.54;100.00;100157.88;5036124;28;20068;-80
2021/12/09 01:15:21;;;;;;;26.10;7.90;;;;;;;2.56;100.00;100155.34;5035048;28;20488;-81
2021/12/09 01:17:47;;;;;;;24.02;7.60;;;;;;;2.54;100.00;100147.50;5035642;28;20440;-78
2021/12/09 01:20:15;;;;;;;19.63;7.63;;;;;;;2.55;100.00;100151.88;5033168;28;20437;-80
2021/12/09 01:22:43;;;;;;;25.50;7.35;;;;;;;2.60;100.00;100152.03;5033351;28;20112;-80
2021/12/09 01:25:14;;;;;;;25.30;8.02;;;;;;;2.60;100.00;100158.09;5034746;28;20055;-80
2021/12/09 01:27:43;;;;;;;24.75;8.93;;;;;;;2.55;100.00;100157.06;5040708;28;20489;-79
2021/12/09 01:30:14;;;;;;;25.80;8.48;;;;;;;2.50;100.00;100156.88;5032436;28;20512;-79
2021/12/09 01:32:44;;;;;;;21.83;8.60;;;;;;;2.51;100.00;100158.66;5034158;28;20116;-78
2021/12/09 01:35:10;;;;;;;18.77;7.90;;;;;;;2.48;100.00;100157.66;5032208;28;20108;-79
2021/12/09 01:37:38;;;;;;;22.48;9.32;;;;;;;2.47;100.00;100161.06;5035052;28;20037;-79
2021/12/09 01:40:05;;;;;;;16.58;7.68;;;;;;;2.45;100.00;100168.78;5037709;28;20025;-79
2021/12/09 01:42:30;;;;;;;26.92;8.85;;;;;;;2.43;100.00;100166.97;5033716;28;20116;-79
2021/12/09 01:44:56;;;;;;;20.40;7.03;;;;;;;2.47;100.00;100171.44;5037808;28;20398;-79
2021/12/09 01:47:23;;;;;;;23.15;8.25;;;;;;;2.42;100.00;100166.09;5033346;28;20350;-79
2021/12/09 01:49:49;;;;;;;25.73;7.22;;;;;;;2.39;100.00;100167.66;5033657;28;20056;-79
2021/12/09 01:52:15;;;;;;;28.83;8.38;;;;;;;2.35;100.00;100175.34;5032987;28;20079;-79
2021/12/09 01:54:40;;;;;;;26.23;7.82;;;;;;;2.31;100.00;100176.06;5040971;28;20032;-79
2021/12/09 01:57:07;;;;;;;28.85;8.63;;;;;;;2.27;100.00;100179.38;5034037;28;20033;-79
2021/12/09 01:59:33;;;;;;;35.42;9.43;;;;;;;2.28;100.00;100172.44;5032385;28;20095;-79
2021/12/09 02:01:59;;;;;;;25.80;8.20;;;;;;;2.24;100.00;100176.66;5034070;28;20025;-79
2021/12/09 02:04:25;;;;;;;25.38;8.80;;;;;;;2.22;100.00;100174.81;5033588;28;20029;-79
2021/12/09 02:06:52;;;;;;;31.48;7.30;;;;;;;2.17;100.00;100172.94;5032539;28;20068;-79
2021/12/09 02:09:18;;;;;;;22.70;7.28;;;;;;;2.16;100.00;100175.47;5032667;28;20033;-79
2021/12/09 02:11:45;;;;;;;34.65;8.30;;;;;;;2.13;100.00;100180.50;5033447;28;20025;-79
2021/12/09 02:14:11;;;;;;;24.23;7.50;;;;;;;2.16;100.00;100180.66;5035150;28;20038;-79
2021/12/09 02:16:38;;;;;;;25.10;8.38;;;;;;;2.13;100.00;100175.31;5036245;28;20029;-79
2021/12/09 02:19:03;;;;;;;24.48;8.57;;;;;;;2.12;100.00;100171.84;5036686;28;20041;-79
2021/12/09 02:21:34;;;;;;;26.10;9.15;;;;;;;2.12;100.00;100169.25;5038780;28;20029;-79
2021/12/09 02:24:06;;;;;;;20.58;8.88;;;;;;;2.10;100.00;100180.41;5018604;28;20128;-80
2021/12/09 02:26:38;;;;;;;19.15;8.02;;;;;;;2.10;100.00;100177.81;5035682;28;20029;-79
2021/12/09 02:29:05;;;;;;;21.50;7.80;;;;;;;2.09;100.00;100174.34;5038386;28;20037;-79
2021/12/09 02:31:32;;;;;;;23.98;7.85;;;;;;;2.07;100.00;100178.56;5035624;28;20083;-79
2021/12/09 02:33:58;;;;;;;23.70;8.60;;;;;;;2.09;100.00;100179.53;5040277;28;20097;-79
2021/12/09 02:36:24;;;;;;;19.90;7.95;;;;;;;2.10;100.00;100175.22;5036333;28;20033;-79
2021/12/09 02:38:50;;;;;;;27.00;8.60;;;;;;;2.07;100.00;100175.09;5038790;28;20103;-79
2021/12/09 02:41:19;;;;;;;23.23;9.00;;;;;;;2.05;100.00;100175.03;5037197;28;20436;-79
2021/12/09 02:43:58;;;;;;;27.08;9.38;;;;;;;2.04;100.00;100175.84;5036634;28;20223;-78
2021/12/09 02:46:25;;;;;;;29.38;9.80;;;;;;;2.02;100.00;100173.22;5041944;28;20041;-79
2021/12/09 02:48:51;;;;;;;21.45;8.90;;;;;;;2.00;100.00;100180.03;5040492;28;20026;-80
2021/12/09 02:51:18;;;;;;;35.53;10.05;;;;;;;1.95;100.00;100176.34;5035872;28;20033;-79
2021/12/09 02:53:44;;;;;;;22.25;9.48;;;;;;;1.95;100.00;100173.75;5037799;28;20033;-78
2021/12/09 02:56:12;;;;;;;21.77;9.18;;;;;;;1.97;100.00;100166.94;5032205;28;20025;-79
2021/12/09 02:58:38;;;;;;;22.85;9.35;;;;;;;1.95;100.00;100171.16;5035465;28;20120;-79
2021/12/09 03:01:12;;;;;;;36.28;9.50;;;;;;;1.95;100.00;100170.28;5036212;28;20022;-79
2021/12/09 03:03:45;;;;;;;33.83;8.90;;;;;;;1.92;100.00;100170.19;5036299;28;20036;-80
2021/12/09 03:06:11;;;;;;;21.52;7.88;;;;;;;1.95;100.00;100165.97;5035276;28;20021;-80
2021/12/09 03:08:38;;;;;;;29.67;9.43;;;;;;;1.93;100.00;100170.25;5036899;28;20033;-79
2021/12/09 03:11:09;;;;;;;25.77;8.98;;;;;;;1.90;100.00;100172.72;5036333;28;20064;-79
2021/12/09 03:13:36;;;;;;;21.65;8.50;;;;;;;1.89;100.00;100165.75;5034882;28;20523;-79
2021/12/09 03:16:03;;;;;;;23.38;7.28;;;;;;;1.87;100.00;100172.56;5035513;28;20037;-79
2021/12/09 03:18:31;;;;;;;24.75;8.60;;;;;;;1.87;100.00;100182.06;5037295;28;20603;-79
2021/12/09 03:20:57;;;;;;;21.45;7.88;;;;;;;1.86;100.00;100186.38;5036209;28;20034;-80
2021/12/09 03:23:23;;;;;;;28.42;9.63;;;;;;;1.89;100.00;100177.84;5035341;28;20036;-78
2021/12/09 03:25:49;;;;;;;27.40;10.15;;;;;;;1.88;100.00;100174.34;5034898;28;20104;-79
2021/12/09 03:28:15;;;;;;;27.30;9.57;;;;;;;1.88;100.00;100178.66;5034770;28;20124;-79
2021/12/09 03:30:41;;;;;;;35.65;9.60;;;;;;;1.86;100.00;100181.19;5035182;28;20198;-78
2021/12/09 03:33:07;;;;;;;29.77;10.18;;;;;;;1.85;100.00;100179.41;5034813;28;20038;-78
2021/12/09 03:35:33;;;;;;;29.88;11.45;;;;;;;1.84;100.00;100177.63;5039799;28;20059;-79
2021/12/09 03:37:59;;;;;;;30.83;11.00;;;;;;;1.82;100.00;100176.72;5034684;28;20120;-79
2021/12/09 03:40:24;;;;;;;28.52;10.65;;;;;;;1.85;100.00;100179.41;5035436;28;20547;-79
2021/12/09 03:42:50;;;;;;;28.50;9.90;;;;;;;1.86;100.00;100176.00;5034259;28;20025;-79
2021/12/09 03:45:15;;;;;;;27.50;9.48;;;;;;;1.89;100.00;100180.44;5036127;28;20457;-79
2021/12/09 03:47:43;;;;;;;30.38;10.25;;;;;;;1.91;100.00;100186.56;5034558;28;20049;-79
2021/12/09 03:50:11;;;;;;;29.10;8.88;;;;;;;1.89;100.00;100183.91;5039593;28;20395;-78
2021/12/09 03:52:37;;;;;;;29.83;8.30;;;;;;;1.91;100.00;100189.16;5034436;28;20036;-80
2021/12/09 03:55:05;;;;;;;23.27;9.35;;;;;;;1.97;100.00;100182.50;5036457;28;20018;-79
2021/12/09 03:57:31;;;;;;;23.98;8.13;;;;;;;1.99;100.00;100193.84;5038075;28;20029;-79
2021/12/09 03:59:58;;;;;;;28.23;7.45;;;;;;;2.07;100.00;100188.06;5036524;28;20056;-79
2021/12/09 04:02:24;;;;;;;30.27;8.93;;;;;;;2.11;100.00;100195.16;5036235;28;20080;-79
2021/12/09 04:04:53;;;;;;;31.08;8.07;;;;;;;2.14;100.00;100197.88;5041960;28;20018;-80
2021/12/09 04:07:19;;;;;;;31.85;8.45;;;;;;;2.12;100.00;100194.34;5035589;28;20060;-80
2021/12/09 04:09:45;;;;;;;30.60;8.50;;;;;;;2.12;100.00;100199.53;5035878;28;20025;-79
2021/12/09 04:12:14;;;;;;;29.85;8.73;;;;;;;2.14;100.00;100192.69;5036073;28;20033;-80
2021/12/09 04:14:40;;;;;;;26.55;7.57;;;;;;;2.13;100.00;100196.09;5033704;28;20032;-80
2021/12/09 04:17:06;;;;;;;27.92;7.63;;;;;;;2.15;100.00;100200.53;5034198;28;20054;-79
2021/12/09 04:19:32;;;;;;;24.02;7.20;;;;;;;2.15;100.00;100197.94;5041787;28;20052;-79
2021/12/09 04:21:58;;;;;;;29.50;8.45;;;;;;;2.16;100.00;100198.84;5038377;28;20033;-79
2021/12/09 04:24:23;;;;;;;37.20;8.63;;;;;;;2.14;100.00;100198.78;5036733;28;20113;-80
2021/12/09 04:26:52;;;;;;;29.58;7.68;;;;;;;2.13;100.00;100188.31;5036159;28;20093;-79
2021/12/09 04:29:18;;;;;;;31.27;8.60;;;;;;;2.11;100.00;100195.16;5033612;28;20516;-79
2021/12/09 04:31:47;;;;;;;34.45;8.07;;;;;;;2.04;100.00;100190.56;5034129;28;20069;-80
2021/12/09 04:34:14;;;;;;;35.50;8.80;;;;;;;2.04;100.00;100185.38;5033569;28;20113;-79
2021/12/09 04:36:39;;;;;;;24.42;7.53;;;;;;;2.08;100.00;100197.63;5015087;28;20037;-79
2021/12/09 04:39:07;;;;;;;27.95;8.07;;;;;;;2.08;100.00;100195.03;5032941;28;20033;-79
2021/12/09 04:41:32;;;;;;;31.98;6.93;;;;;;;2.03;100.00;100194.84;5028749;28;20076;-80
2021/12/09 04:43:58;;;;;;;29.70;6.40;;;;;;;2.01;100.00;100201.69;5035133;28;20530;-77
2021/12/09 04:46:23;;;;;;;23.02;6.32;;;;;;;2.02;100.00;100199.16;5030769;28;20030;-79
2021/12/09 04:48:49;;;;;;;33.35;7.40;;;;;;;1.98;100.00;100202.44;5035551;28;20538;-78
2021/12/09 04:51:14;;;;;;;29.98;7.47;;;;;;;1.99;100.00;100209.41;5041250;28;20038;-78
2021/12/09 04:53:40;;;;;;;29.95;7.43;;;;;;;1.99;100.00;100212.00;5033214;28;20026;-80
2021/12/09 04:56:05;;;;;;;23.17;6.63;;;;;;;1.97;100.00;100212.78;5033479;28;20044;-78
2021/12/09 04:58:31;;;;;;;26.15;7.20;;;;;;;1.95;100.00;100215.28;5041728;28;20385;-81
2021/12/09 05:01:00;;;;;;;28.17;6.10;;;;;;;1.97;100.00;100220.56;5033589;28;20116;-80
2021/12/09 05:03:26;;;;;;;27.30;6.03;;;;;;;2.05;100.00;100226.03;5036676;28;20025;-78
2021/12/09 05:05:54;;;;;;;21.20;5.43;;;;;;;2.13;100.00;100222.94;5036507;28;20032;-78
2021/12/09 05:08:23;;;;;;;24.42;5.47;;;;;;;2.15;100.00;100220.41;5036100;28;20052;-78
2021/12/09 05:11:12;;;;;;;19.55;6.10;;;;;;;2.19;100.00;100222.31;5033032;28;20037;-79
2021/12/09 05:13:39;;;;;;;26.02;4.72;;;;;;;2.24;100.00;100228.56;5036141;28;20018;-79
2021/12/09 05:16:08;;;;;;;25.25;4.50;;;;;;;2.29;100.00;100229.66;5035478;28;20025;-79
2021/12/09 05:18:36;;;;;;;20.88;6.30;;;;;;;2.31;100.00;100227.97;5034903;28;20033;-79
2021/12/09 05:21:03;;;;;;;32.97;4.97;;;;;;;2.35;100.00;100240.25;5033935;28;20417;-79
2021/12/09 05:23:29;;;;;;;18.70;5.30;;;;;;;2.38;100.00;100234.31;5035149;28;20112;-79
2021/12/09 05:25:55;;;;;;;19.83;4.72;;;;;;;2.40;100.00;100229.16;5036937;28;20142;-79
2021/12/09 05:28:29;;;;;;;28.25;5.57;;;;;;;2.44;100.00;100231.06;5033685;28;20371;-78
2021/12/09 05:33:41;;;;;;;20.77;5.13;;;;;;;2.44;100.00;100218.06;5033723;28;20126;-79
2021/12/09 05:36:07;;;;;;;21.73;4.28;;;;;;;2.45;100.00;100227.66;5034639;28;20005;-79
2021/12/09 05:38:32;;;;;;;25.48;5.25;;;;;;;2.46;100.00;100232.91;5034882;28;20057;-79
2021/12/09 05:41:02;;;;;;;21.65;4.15;;;;;;;2.49;100.00;100229.53;5034171;28;20114;-79
2021/12/09 05:43:28;;;;;;;17.73;4.15;;;;;;;2.47;100.00;100232.06;5034699;28;20057;-79
2021/12/09 05:45:53;;;;;;;25.05;4.85;;;;;;;2.49;100.00;100224.34;5034198;28;20041;-80
2021/12/09 05:48:19;;;;;;;31.38;4.90;;;;;;;2.48;100.00;100227.75;5038936;28;20389;-80
2021/12/09 05:50:45;;;;;;;25.75;4.38;;;;;;;2.49;100.00;100226.94;5034626;28;20424;-80
2021/12/09 05:53:12;;;;;;;19.52;4.75;;;;;;;2.47;100.00;100232.06;5031596;28;20092;-79
2021/12/09 05:55:43;;;;;;;25.65;5.45;;;;;;;2.48;100.00;100232.94;5038873;28;20097;-79
2021/12/09 05:58:20;;;;;;;28.42;5.10;;;;;;;2.46;100.00;100235.50;5034484;28;20065;-79
2021/12/09 06:00:46;;;;;;;22.48;4.68;;;;;;;2.46;100.00;100248.47;5030834;28;20033;-79
2021/12/09 06:03:11;;;;;;;28.30;4.93;;;;;;;2.47;100.00;100244.16;5033795;28;20037;-79
2021/12/09 06:05:37;;;;;;;24.73;3.95;;;;;;;2.48;100.00;100241.66;5034822;28;20362;-79
2021/12/09 06:08:04;;;;;;;18.90;5.60;;;;;;;2.47;100.00;100244.16;5034879;28;20036;-78
2021/12/09 06:10:34;;;;;;;23.50;4.63;;;;;;;2.48;100.00;100245.94;5032256;28;20385;-79
2021/12/09 06:13:00;;;;;;;25.73;4.45;;;;;;;2.48;100.00;100245.94;5034102;28;20104;-79
2021/12/09 06:15:26;;;;;;;18.63;4.38;;;;;;;2.51;100.00;100246.09;5042269;28;20025;-79
2021/12/09 06:17:51;;;;;;;23.75;5.88;;;;;;;2.58;100.00;100250.69;5034404;28;20039;-79
2021/12/09 06:20:18;;;;;;;18.60;4.50;;;;;;;2.59;100.00;100252.47;5027952;28;20038;-78
2021/12/09 06:22:43;;;;;;;18.55;4.85;;;;;;;2.60;100.00;100254.19;5027306;28;20724;-78
2021/12/09 06:25:16;;;;;;;19.90;4.53;;;;;;;2.60;100.00;100255.94;5026801;28;20036;-77
2021/12/09 06:27:41;;;;;;;21.90;4.80;;;;;;;2.52;100.00;100261.72;5027121;28;20034;-77
2021/12/09 06:30:09;;;;;;;22.50;4.97;;;;;;;2.52;100.00;100253.03;5027237;28;20069;-77
2021/12/09 06:32:34;;;;;;;19.98;4.53;;;;;;;2.52;100.00;100253.94;5028366;28;20033;-77
2021/12/09 06:35:03;;;;;;;22.60;4.75;;;;;;;2.48;100.00;100244.25;5031217;28;20137;-78
2021/12/09 06:37:28;;;;;;;20.40;5.38;;;;;;;2.49;100.00;100250.31;5030263;28;20021;-81
2021/12/09 06:39:54;;;;;;;21.08;5.40;;;;;;;2.46;100.00;100247.59;5032420;28;20026;-78
2021/12/09 06:42:19;;;;;;;23.45;5.68;;;;;;;2.44;100.00;100254.44;5031123;28;20032;-77
2021/12/09 06:44:44;;;;;;;16.90;4.57;;;;;;;2.42;100.00;100243.13;5034795;28;20099;-76
2021/12/09 06:47:10;;;;;;;23.20;6.07;;;;;;;2.41;100.00;100252.59;5031087;28;20037;-77
2021/12/09 06:49:36;;;;;;;26.92;5.72;;;;;;;2.35;100.00;100250.66;5024254;28;20049;-76
2021/12/09 06:52:02;;;;;;;18.40;6.32;;;;;;;2.34;100.00;100248.88;5025129;28;20355;-77
2021/12/09 06:54:27;;;;;;;21.73;4.88;;;;;;;2.33;100.00;100257.50;5029506;28;20070;-77
2021/12/09 06:56:52;;;;;;;23.52;6.22;;;;;;;2.38;100.00;100257.69;5025554;28;20100;-78
2021/12/09 06:59:18;;;;;;;27.65;5.80;;;;;;;2.38;100.00;100254.19;5036889;28;20087;-77
2021/12/09 07:01:44;;;;;;;28.45;5.72;;;;;;;2.39;100.00;100261.16;5036220;28;20112;-76
2021/12/09 07:04:09;;;;;;;29.52;6.20;;;;;;;2.38;100.00;100256.81;5035906;28;20037;-77
2021/12/09 07:06:36;;;;;;;18.55;5.97;;;;;;;2.40;100.00;100260.31;5033331;28;20100;-76
2021/12/09 07:09:04;;;;;;;28.88;5.90;;;;;;;2.42;100.00;100267.34;5029459;28;20021;-74
2021/12/09 07:11:31;;;;;;;24.80;7.55;;;;;;;2.44;100.00;100267.41;5034701;28;20029;-75
2021/12/09 07:13:58;;;;;;;21.45;5.80;;;;;;;2.43;100.00;100263.03;5035977;28;20040;-82
2021/12/09 07:16:24;;;;;;;25.02;6.25;;;;;;;2.44;100.00;100273.50;5037256;28;20039;-80
2021/12/09 07:18:50;;;;;;;26.27;6.63;;;;;;;2.46;100.00;100268.38;5032983;28;20037;-83
2021/12/09 07:21:15;;;;;;;26.65;7.10;;;;;;;2.47;100.00;100272.72;5033231;28;20501;-81
2021/12/09 07:23:42;;;;;;;23.45;5.75;;;;;;;2.49;100.00;100263.28;5034740;28;20056;-84
2021/12/09 07:26:08;;;;;;;24.67;6.85;;;;;;;2.50;100.00;100270.28;5032775;28;20025;-85
2021/12/09 07:28:34;;;;;;;31.73;6.07;;;;;;;2.52;100.00;100269.50;5032253;28;20496;-85
2021/12/09 07:31:02;;;;;;;18.38;6.65;;;;;;;2.53;100.00;100272.97;5034429;28;20088;-85
2021/12/09 07:33:28;;;;;;;15.43;5.72;;;;;;;2.57;100.00;100277.47;5032481;28;20030;-83
2021/12/09 07:35:53;;;;;;;24.05;6.07;;;;;;;2.57;100.00;100272.28;5029439;28;20030;-84
2021/12/09 07:38:18;;;;;;;24.10;5.85;;;;;;;2.56;100.00;100278.28;5038547;28;20026;-83
2021/12/09 07:40:44;;;;;;;24.45;5.78;;;;;;;2.61;100.00;100279.38;5036088;28;20500;-84
2021/12/09 07:43:09;;;;;;;21.52;5.93;;;;;;;2.64;100.00;100276.00;5037273;28;20040;-81
2021/12/09 07:45:35;;;;;;;18.08;4.70;;;;;;;2.64;100.00;100276.88;5031110;28;20032;-85
2021/12/09 07:48:00;;;;;;;24.27;6.03;;;;;;;2.62;100.00;100275.94;5040555;28;20029;-85
2021/12/09 07:50:28;;;;;;;24.75;5.95;;;;;;;2.67;100.00;100283.91;5039186;28;20048;-82
2021/12/09 07:52:55;;;;;;;24.55;6.00;;;;;;;2.74;100.00;100282.44;5037717;28;20482;-83
2021/12/09 07:55:22;;;;;;;28.42;7.43;;;;;;;2.79;100.00;100283.50;5037510;28;20430;-86
2021/12/09 07:57:48;;;;;;;24.35;6.60;;;;;;;2.90;100.00;100291.72;5037773;28;20470;-78
2021/12/09 08:00:20;;;;;;;30.95;7.40;;;;;;;2.98;100.00;100296.38;5034735;28;20065;-82
2021/12/09 08:02:47;;;;;;;20.50;6.40;;;;;;;3.02;100.00;100293.06;5035523;28;20068;-81
2021/12/09 08:05:15;;;;;;;17.30;6.05;;;;;;;3.09;100.00;100293.31;5038974;28;20029;-82
2021/12/09 08:07:41;;;;;;;20.63;7.30;;;;;;;3.10;100.00;100295.97;5042205;28;20060;-82
2021/12/09 08:10:09;;;;;;;27.23;7.65;;;;;;;3.12;100.00;100309.00;5036905;28;20036;-82
2021/12/09 08:12:34;;;;;;;19.55;5.88;;;;;;;3.18;100.00;100315.34;5044192;28;20029;-82
2021/12/09 08:15:00;;;;;;;19.55;6.70;;;;;;;3.21;100.00;100309.38;5036732;28;20044;-83
2021/12/09 08:20:05;;;;;;;26.42;7.97;;;;;;;3.29;100.00;100323.53;5036941;28;20527;-83
2021/12/09 08:22:31;;;;;;;31.90;8.45;;;;;;;3.33;100.00;100309.81;5033505;28;20465;-81
2021/12/09 08:24:58;;;;;;;24.67;8.88;;;;;;;3.35;100.00;100318.56;5036404;28;20025;-83
2021/12/09 08:27:25;;;;;;;28.08;7.30;;;;;;;3.42;100.00;100311.88;5041541;28;20083;-82
2021/12/09 08:29:50;;;;;;;25.02;6.97;;;;;;;3.49;100.00;100311.28;5041648;28;20065;-82
2021/12/09 08:32:16;;;;;;;21.30;7.45;;;;;;;3.50;100.00;100313.06;5041796;28;20037;-81
2021/12/09 08:34:41;;;;;;;20.42;7.65;;;;;;;3.53;100.00;100312.28;5029793;28;20034;-82
2021/12/09 08:37:07;;;;;;;25.17;7.05;;;;;;;3.53;100.00;100312.28;5027398;28;20041;-82
2021/12/09 08:39:32;;;;;;;24.58;7.72;;;;;;;3.54;100.00;100309.72;5032531;28;20029;-78
2021/12/09 08:41:57;;;;;;;25.52;8.15;;;;;;;3.54;100.00;100311.44;5025904;28;20021;-74
2021/12/09 08:44:23;;;;;;;25.08;8.30;;;;;;;3.56;100.00;100317.59;5030544;28;20060;-75
2021/12/09 08:46:49;;;;;;;26.27;7.35;;;;;;;3.59;100.00;100312.50;5024863;28;20026;-75
2021/12/09 08:49:15;;;;;;;20.25;7.50;;;;;;;3.59;100.00;100312.50;5027967;28;20029;-75
2021/12/09 08:51:41;;;;;;;25.88;8.35;;;;;;;3.62;100.00;100320.44;5028953;28;20041;-75
2021/12/09 08:54:06;;;;;;;26.63;8.00;;;;;;;3.63;100.00;100322.16;5036845;28;20033;-74
2021/12/09 08:56:34;;;;;;;30.33;8.40;;;;;;;3.67;100.00;100318.84;5040456;28;20028;-81
2021/12/09 08:59:02;;;;;;;25.02;8.40;;;;;;;3.64;100.00;100330.88;5035555;28;20033;-80
2021/12/09 09:01:27;;;;;;;27.02;7.70;;;;;;;3.68;100.00;100323.22;5034104;28;20025;-79
2021/12/09 09:03:53;;;;;;;26.77;8.13;;;;;;;3.76;100.00;100327.81;5029067;28;20026;-79
2021/12/09 09:06:19;;;;;;;20.55;7.90;;;;;;;3.76;100.00;100325.22;5014280;28;20409;-79
2021/12/09 09:08:50;;;;;;;23.10;8.27;;;;;;;3.80;100.00;100327.09;5034762;28;20057;-78
2021/12/09 09:11:16;;;;;;;24.80;7.82;;;;;;;3.83;100.00;100324.63;5032134;28;20497;-78
2021/12/09 09:13:41;;;;;;;26.08;8.90;;;;;;;3.85;100.00;100330.75;5034130;28;20087;-79
2021/12/09 09:16:07;;;;;;;28.00;9.63;;;;;;;3.86;100.00;100332.53;5034974;28;20033;-79
2021/12/09 09:18:33;;;;;;;32.17;9.15;;;;;;;3.87;100.00;100323.91;5032679;28;20033;-78
2021/12/09 09:20:58;;;;;;;23.67;9.57;;;;;;;3.91;100.00;100330.06;5032068;28;20069;-79
2021/12/09 09:23:24;;;;;;;28.33;8.35;;;;;;;3.96;100.00;100323.31;5033540;28;20041;-79
2021/12/09 09:25:50;;;;;;;22.80;8.60;;;;;;;3.97;100.00;100331.19;5028375;28;20017;-78
2021/12/09 09:28:16;;;;;;;22.60;8.98;;;;;;;3.99;100.00;100326.94;5035829;28;20121;-79
2021/12/09 09:30:49;;;;;;;26.60;8.68;;;;;;;4.02;100.00;100319.22;5043668;28;20449;-78
2021/12/09 09:33:16;;;;;;;28.90;8.95;;;;;;;4.07;100.00;100322.00;5035119;28;20033;-79
2021/12/09 09:35:43;;;;;;;26.80;9.48;;;;;;;4.11;100.00;100334.28;5037078;28;20025;-79
2021/12/09 09:38:09;;;;;;;31.05;10.32;;;;;;;4.20;100.00;100331.09;5036190;28;20433;-79
2021/12/09 09:40:51;;;;;;;32.88;9.70;;;;;;;4.22;100.00;100345.94;5036886;28;20038;-77
2021/12/09 09:43:43;;;;;;;27.35;11.18;;;;;;;4.24;100.00;100339.91;5034549;28;20025;-79
2021/12/09 09:46:11;;;;;;;22.45;8.85;;;;;;;4.30;100.00;100333.19;5033154;28;20503;-79
2021/12/09 09:48:38;;;;;;;24.48;9.50;;;;;;;4.38;100.00;100334.31;5034754;28;20086;-79
2021/12/09 09:51:06;;;;;;;20.13;9.52;;;;;;;4.41;100.00;100333.53;5037574;28;20037;-79
2021/12/09 09:53:32;;;;;;;24.65;10.25;;;;;;;4.46;100.00;100338.91;5031018;28;20064;-79
2021/12/09 09:55:58;;;;;;;26.08;10.98;;;;;;;4.50;100.00;100327.75;5036440;28;20025;-79
2021/12/09 09:58:25;;;;;;;27.45;9.80;;;;;;;4.51;100.00;100329.53;5036837;28;20094;-79
2021/12/09 10:00:51;;;;;;;23.60;10.82;;;;;;;4.54;100.00;100329.59;5032646;28;20033;-79
2021/12/09 10:03:17;;;;;;;33.65;11.55;;;;;;;4.62;100.00;100328.13;5036464;28;20044;-79
2021/12/09 10:05:47;;;;;;;22.02;10.25;;;;;;;4.63;100.00;100332.50;5033553;28;20120;-79
2021/12/09 10:08:16;;;;;;;33.28;11.65;;;;;;;4.56;100.00;100339.25;5039787;28;20068;-79
2021/12/09 10:10:45;;;;;;;20.58;10.93;;;;;;;4.56;100.00;100339.25;5039700;28;20025;-79
2021/12/09 10:13:13;;;;;;;27.98;11.57;;;;;;;4.57;100.00;100350.53;5038666;28;20040;-80
2021/12/09 10:15:41;;;;;;;30.30;13.45;;;;;;;4.58;100.00;100347.13;5031724;28;20021;-79
2021/12/09 10:18:06;;;;;;;33.25;12.45;;;;;;;4.62;100.00;100345.50;5036060;28;20068;-79
2021/12/09 10:20:54;;;;;;;20.95;12.25;;;;;;;4.65;100.00;100353.41;5041780;28;20484;-80
2021/12/09 10:23:42;;;;;;;30.67;11.95;;;;;;;4.58;100.00;100341.91;5030502;28;20082;-79
2021/12/09 10:26:23;;;;;;;24.48;11.43;;;;;;;4.55;100.00;100347.91;5036276;28;20489;-79
2021/12/09 10:29:09;;;;;;;28.70;11.43;;;;;;;4.59;100.00;100343.69;5036475;28;20033;-79
2021/12/09 10:31:46;;;;;;;29.88;12.00;;;;;;;4.62;100.00;100338.56;5031705;28;20136;-79
2021/12/09 10:34:32;;;;;;;30.25;13.35;;;;;;;4.62;100.00;100338.56;5041239;28;20025;-79
2021/12/09 10:36:57;;;;;;;27.23;11.80;;;;;;;4.68;100.00;100327.44;5039767;28;20021;-79
2021/12/09 10:39:25;;;;;;;35.03;12.88;;;;;;;4.71;100.00;100323.22;5042462;28;20029;-79
2021/12/09 10:41:51;;;;;;;28.73;12.85;;;;;;;4.77;100.00;100316.44;5043744;28;20052;-80
2021/12/09 10:44:20;;;;;;;37.38;14.85;;;;;;;4.78;100.00;100324.31;5042957;28;20040;-79
2021/12/09 10:46:55;;;;;;;31.45;13.38;;;;;;;4.85;100.00;100325.38;5040077;28;20028;-79
2021/12/09 10:49:21;;;;;;;29.63;13.52;;;;;;;4.90;100.00;100329.03;5028632;28;20029;-79
2021/12/09 10:51:58;;;;;;;29.65;13.40;;;;;;;4.95;100.00;100321.34;5040383;28;20402;-79
2021/12/09 10:54:35;;;;;;;30.08;13.55;;;;;;;4.97;100.00;100317.94;5040452;28;20052;-79
2021/12/09 10:57:23;;;;;;;32.58;14.43;;;;;;;4.90;100.00;100318.59;5035324;28;20029;-79
2021/12/09 10:59:48;;;;;;;24.65;11.88;;;;;;;4.94;100.00;100320.47;5042195;28;20730;-79
2021/12/09 11:02:15;;;;;;;34.80;12.77;;;;;;;4.99;100.00;100321.50;5038819;28;20064;-79
2021/12/09 11:04:40;;;;;;;28.98;12.80;;;;;;;4.93;100.00;100320.41;5040637;28;20485;-79
2021/12/09 11:07:31;;;;;;;27.23;13.25;;;;;;;4.92;100.00;100316.03;5045107;28;20086;-79
2021/12/09 11:10:20;;;;;;;24.05;11.57;;;;;;;4.95;100.00;100317.03;5036477;28;20387;-79
2021/12/09 11:12:55;;;;;;;33.30;13.68;;;;;;;4.96;100.00;100313.56;5035465;28;20497;-76
2021/12/09 11:15:41;;;;;;;30.17;13.75;;;;;;;5.01;100.00;100319.81;5034842;28;20035;-79
2021/12/09 11:18:29;;;;;;;35.85;14.98;;;;;;;5.07;100.00;100317.41;5035767;28;20029;-79
2021/12/09 11:20:55;;;;;;;34.90;14.75;;;;;;;5.06;100.00;100320.84;5034476;28;20389;-79
2021/12/09 11:23:49;;;;;;;33.15;14.25;;;;;;;5.00;100.00;100314.53;5045622;28;20495;-82
2021/12/09 11:26:49;;;;;;;30.77;13.43;;;;;;;5.02;100.00;100313.75;5035848;28;20021;-78